Time;durP1;ratioP1;P1;durP2;ratioP2;P2;SDS_P1;SDS_P2;PMS_P1;PMS_P2;Temp;Humidity;BMP_temperature;BMP_pressure;BME280_temperature;BME280_humidity;BME280_pressure;Samples;Min_cycle;Max_cycle;Signal;HPM_P1;HPM_P2
2023/01/01 00:00:07;;;;;;;8.18;6.55;;;10.80;99.90;;;;;;5042786;28;20112;-78
2023/01/01 00:02:33;;;;;;;8.55;6.38;;;10.70;99.90;;;;;;5052141;28;20051;-78
2023/01/01 00:04:59;;;;;;;9.38;7.25;;;10.60;99.90;;;;;;5037170;28;20033;-78
2023/01/01 00:07:25;;;;;;;10.13;7.35;;;10.60;99.90;;;;;;5051834;28;20032;-78
2023/01/01 00:12:35;;;;;;;10.23;7.72;;;10.50;99.90;;;;;;5040365;28;20087;-78
2023/01/01 00:15:00;;;;;;;9.20;7.47;;;10.40;99.90;;;;;;5052307;28;20070;-78
2023/01/01 00:17:28;;;;;;;9.00;6.82;;;10.40;99.90;;;;;;5048528;28;20036;-78
2023/01/01 00:19:54;;;;;;;7.32;6.53;;;10.60;99.90;;;;;;5051796;28;20028;-78
2023/01/01 00:22:20;;;;;;;7.30;6.15;;;10.50;99.90;;;;;;5052227;28;20092;-78
2023/01/01 00:24:46;;;;;;;7.68;6.60;;;10.40;99.90;;;;;;5052463;28;20498;-78
2023/01/01 00:27:11;;;;;;;10.02;6.82;;;10.30;99.90;;;;;;5047646;28;20053;-78
2023/01/01 00:29:37;;;;;;;9.30;6.05;;;10.10;99.90;;;;;;5062313;28;20060;-78
2023/01/01 00:32:03;;;;;;;9.63;5.80;;;10.20;99.90;;;;;;5051891;28;20037;-78
2023/01/01 00:34:29;;;;;;;8.82;6.50;;;10.20;99.90;;;;;;5049298;28;20025;-78
2023/01/01 00:36:55;;;;;;;8.57;6.05;;;10.10;99.90;;;;;;5052318;28;20490;-78
2023/01/01 00:39:21;;;;;;;7.32;5.88;;;10.20;99.90;;;;;;5049507;28;20026;-78
2023/01/01 00:41:47;;;;;;;10.68;6.85;;;10.20;99.90;;;;;;5047349;28;20036;-78
2023/01/01 00:44:12;;;;;;;8.88;6.05;;;10.20;99.90;;;;;;5046777;28;20530;-78
2023/01/01 00:46:38;;;;;;;8.07;6.05;;;10.10;99.90;;;;;;5050291;28;20029;-78
2023/01/01 00:49:03;;;;;;;6.95;5.53;;;10.00;99.90;;;;;;5037172;28;20032;-78
2023/01/01 00:51:29;;;;;;;8.57;6.40;;;9.90;99.90;;;;;;5031781;28;20026;-78
2023/01/01 00:53:55;;;;;;;7.40;5.97;;;9.90;99.90;;;;;;5035477;28;20517;-78
2023/01/01 00:56:20;;;;;;;9.95;6.38;;;10.10;99.90;;;;;;5031971;28;20083;-78
2023/01/01 00:58:46;;;;;;;8.80;5.80;;;10.20;99.90;;;;;;5049634;28;20495;-78
2023/01/01 01:01:12;;;;;;;7.70;5.53;;;10.40;99.90;;;;;;5051577;28;20499;-78
2023/01/01 01:03:39;;;;;;;7.60;4.88;;;10.50;99.90;;;;;;5049068;28;20494;-78
2023/01/01 01:06:04;;;;;;;9.43;5.60;;;10.60;99.90;;;;;;5032264;28;20044;-78
2023/01/01 01:08:32;;;;;;;5.95;5.18;;;10.80;99.90;;;;;;5031636;28;20484;-78
2023/01/01 01:11:16;;;;;;;5.75;4.68;;;10.60;99.90;;;;;;5031671;28;20030;-78
2023/01/01 01:13:43;;;;;;;6.53;5.13;;;10.50;99.90;;;;;;5044677;28;20021;-78
2023/01/01 01:16:15;;;;;;;7.72;5.45;;;10.30;99.90;;;;;;5050967;28;20029;-78
2023/01/01 01:18:41;;;;;;;5.35;4.65;;;10.20;99.90;;;;;;5051297;28;20021;-78
2023/01/01 01:21:07;;;;;;;5.95;4.50;;;10.10;99.90;;;;;;5050896;28;20083;-78
2023/01/01 01:23:33;;;;;;;6.05;4.60;;;10.10;99.90;;;;;;5051276;28;20021;-78
2023/01/01 01:26:18;;;;;;;8.05;5.28;;;10.20;99.90;;;;;;5050606;28;20040;-78
2023/01/01 01:28:44;;;;;;;6.20;4.78;;;10.30;99.90;;;;;;5046740;28;20049;-78
2023/01/01 01:31:10;;;;;;;7.43;4.97;;;10.20;99.90;;;;;;5045082;28;20036;-78
2023/01/01 01:33:36;;;;;;;6.38;4.72;;;10.40;99.90;;;;;;5051404;28;20510;-78
2023/01/01 01:36:04;;;;;;;5.38;4.07;;;10.40;99.90;;;;;;5051313;28;20025;-78
2023/01/01 01:38:30;;;;;;;8.98;4.22;;;10.40;99.90;;;;;;5050783;28;20230;-78
2023/01/01 01:40:56;;;;;;;6.68;4.40;;;10.40;99.90;;;;;;5051271;28;20033;-78
2023/01/01 01:43:25;;;;;;;6.50;4.43;;;10.50;99.90;;;;;;5050736;28;20083;-78
2023/01/01 01:46:02;;;;;;;5.65;3.90;;;10.40;99.90;;;;;;5046908;28;20025;-78
2023/01/01 01:48:37;;;;;;;6.05;3.92;;;10.50;99.90;;;;;;5051182;28;20086;-78
2023/01/01 01:51:03;;;;;;;10.35;5.13;;;10.60;99.90;;;;;;5049841;28;20029;-78
2023/01/01 01:53:31;;;;;;;6.97;4.80;;;10.90;99.90;;;;;;5050450;28;20037;-78
2023/01/01 01:56:01;;;;;;;6.78;4.55;;;10.90;99.90;;;;;;5049102;28;20029;-78
2023/01/01 01:58:30;;;;;;;6.53;4.38;;;10.90;99.90;;;;;;5051114;28;20017;-78
2023/01/01 02:00:56;;;;;;;12.23;4.82;;;11.00;99.90;;;;;;5050707;28;20063;-78
2023/01/01 02:03:32;;;;;;;9.40;4.70;;;11.10;99.90;;;;;;5050470;28;20028;-78
2023/01/01 02:05:59;;;;;;;6.00;3.75;;;11.00;99.90;;;;;;5038115;28;20630;-78
2023/01/01 02:08:25;;;;;;;6.55;4.38;;;10.90;99.90;;;;;;5046390;28;20074;-78
2023/01/01 02:10:51;;;;;;;6.90;4.15;;;10.90;99.90;;;;;;5050652;28;20060;-77
2023/01/01 02:13:17;;;;;;;5.78;3.90;;;11.00;99.90;;;;;;5050103;28;20025;-77
2023/01/01 02:16:03;;;;;;;8.00;4.18;;;10.90;99.90;;;;;;5050839;28;20286;-78
2023/01/01 02:18:38;;;;;;;8.90;4.25;;;10.90;99.90;;;;;;5050416;28;20025;-78
2023/01/01 02:21:18;;;;;;;10.05;4.82;;;10.80;99.90;;;;;;5050545;28;20021;-78
2023/01/01 02:24:06;;;;;;;9.60;5.07;;;10.90;99.90;;;;;;5045866;28;20043;-78
2023/01/01 02:26:37;;;;;;;8.02;5.22;;;10.90;99.90;;;;;;5046922;28;20191;-78
2023/01/01 02:29:23;;;;;;;;;;;11.00;99.90;;;;;;5049708;28;20620;-78
2023/01/01 02:31:56;;;;;;;10.70;5.30;;;11.10;99.90;;;;;;5053948;28;19920;-78
2023/01/01 02:34:27;;;;;;;10.23;5.30;;;11.10;99.90;;;;;;5050602;28;20022;-78
2023/01/01 02:36:56;;;;;;;8.93;5.30;;;10.90;99.90;;;;;;5054828;28;20031;-78
2023/01/01 02:39:26;;;;;;;8.55;5.07;;;10.90;99.90;;;;;;5054343;28;20560;-78
2023/01/01 02:41:55;;;;;;;9.13;5.10;;;11.10;99.90;;;;;;5054555;28;20029;-78
2023/01/01 02:44:23;;;;;;;10.70;5.97;;;11.00;99.90;;;;;;5052285;28;20053;-78
2023/01/01 02:46:49;;;;;;;8.90;5.15;;;11.10;99.90;;;;;;5054739;28;20021;-78
2023/01/01 02:49:15;;;;;;;6.38;5.13;;;11.20;99.90;;;;;;5052231;28;20490;-78
2023/01/01 02:51:53;;;;;;;9.02;5.53;;;11.40;99.90;;;;;;5054397;28;20033;-78
2023/01/01 02:54:18;;;;;;;7.95;4.97;;;11.30;99.90;;;;;;5053774;28;20022;-78
2023/01/01 02:57:15;;;;;;;7.93;4.32;;;11.30;99.90;;;;;;5053660;28;20036;-78
2023/01/01 03:00:18;;;;;;;9.43;4.70;;;11.20;99.90;;;;;;5042689;28;20078;-78
2023/01/01 03:03:01;;;;;;;8.70;4.50;;;11.10;99.90;;;;;;5049082;28;20029;-78
2023/01/01 03:08:58;;;;;;;6.93;4.40;;;10.70;99.90;;;;;;5053567;28;20055;-78
2023/01/01 03:11:31;;;;;;;6.93;4.10;;;10.90;99.90;;;;;;5053545;28;20071;-78
2023/01/01 03:14:13;;;;;;;7.03;4.22;;;10.80;99.90;;;;;;5053560;28;20127;-78
2023/01/01 03:16:51;;;;;;;7.00;4.10;;;10.90;99.90;;;;;;5049954;28;20528;-78
2023/01/01 03:19:32;;;;;;;8.93;4.53;;;10.80;99.90;;;;;;5054089;28;20025;-78
2023/01/01 03:22:04;;;;;;;7.90;4.70;;;10.90;99.90;;;;;;5052675;28;20032;-78
2023/01/01 03:24:55;;;;;;;;;;;10.90;99.90;;;;;;5053690;28;20033;-78
2023/01/01 03:27:24;;;;;;;;;;;11.10;99.90;;;;;;5022005;28;20288;-78
2023/01/01 03:29:53;;;;;;;7.03;4.72;;;11.10;99.90;;;;;;5011392;28;19972;-78
2023/01/01 03:32:59;;;;;;;9.07;4.20;;;11.00;99.90;;;;;;5011105;28;20038;-78
2023/01/01 03:35:16;;;;;;;7.88;4.50;;;11.00;99.90;;;;;;5011265;28;20026;-78
2023/01/01 03:37:46;;;;;;;5.97;4.43;;;10.90;99.90;;;;;;4999085;28;20038;-78
2023/01/01 03:40:13;;;;;;;5.82;4.15;;;11.00;99.90;;;;;;5030714;28;20602;-78
2023/01/01 03:42:42;;;;;;;10.32;5.40;;;11.00;99.90;;;;;;5030430;28;20057;-78
2023/01/01 03:45:42;;;;;;;6.95;4.97;;;11.20;99.90;;;;;;5030700;28;20040;-78
2023/01/01 03:48:08;;;;;;;6.07;4.03;;;11.20;99.90;;;;;;5020093;28;20041;-78
2023/01/01 03:50:57;;;;;;;9.90;4.47;;;11.30;99.90;;;;;;5013998;28;20576;-78
2023/01/01 03:53:38;;;;;;;12.65;5.50;;;11.30;99.90;;;;;;5030349;28;20144;-78
2023/01/01 03:56:13;;;;;;;;;;;11.10;99.90;;;;;;5031134;28;20069;-78
2023/01/01 03:58:58;;;;;;;9.93;4.80;;;11.00;99.90;;;;;;5001229;28;19909;-78
2023/01/01 04:01:33;;;;;;;8.25;4.75;;;11.00;99.90;;;;;;5030180;28;20051;-78
2023/01/01 04:04:02;;;;;;;9.65;4.75;;;11.00;99.90;;;;;;5016188;28;20037;-78
2023/01/01 04:06:28;;;;;;;10.20;4.68;;;11.00;99.90;;;;;;5052221;28;20028;-78
2023/01/01 04:08:57;;;;;;;10.80;4.43;;;11.00;99.90;;;;;;5047663;28;20025;-78
2023/01/01 04:14:11;;;;;;;7.03;4.28;;;11.00;99.90;;;;;;5053044;28;20609;-78
2023/01/01 04:16:37;;;;;;;7.82;4.20;;;11.00;99.90;;;;;;5051072;28;20035;-78
2023/01/01 04:19:05;;;;;;;6.30;4.68;;;10.90;99.90;;;;;;5032642;28;20440;-78
2023/01/01 04:21:32;;;;;;;10.23;4.82;;;11.10;99.90;;;;;;5032522;28;20519;-78
2023/01/01 04:23:58;;;;;;;6.05;4.18;;;11.20;99.90;;;;;;5036172;28;20166;-78
2023/01/01 04:26:23;;;;;;;6.30;4.40;;;11.10;99.90;;;;;;5047205;28;20506;-78
2023/01/01 04:28:49;;;;;;;9.80;4.78;;;11.10;99.90;;;;;;5052140;28;20080;-78
2023/01/01 04:31:15;;;;;;;8.45;4.57;;;11.10;99.90;;;;;;5049081;28;20037;-78
2023/01/01 04:33:41;;;;;;;8.00;4.93;;;11.10;99.90;;;;;;5047764;28;20026;-78
2023/01/01 04:36:09;;;;;;;10.50;4.90;;;11.10;99.90;;;;;;5046605;28;20104;-78
2023/01/01 04:38:36;;;;;;;11.68;4.43;;;11.30;99.90;;;;;;5048340;28;20025;-78
2023/01/01 04:41:03;;;;;;;6.47;4.35;;;11.30;99.90;;;;;;5052156;28;20025;-78
2023/01/01 04:43:29;;;;;;;9.02;4.40;;;11.10;99.90;;;;;;5051842;28;20023;-78
2023/01/01 04:46:00;;;;;;;6.68;3.92;;;11.10;99.90;;;;;;5051362;28;20111;-78
2023/01/01 04:48:26;;;;;;;8.68;4.38;;;11.30;99.90;;;;;;5052273;28;20033;-78
2023/01/01 04:51:00;;;;;;;6.88;4.07;;;11.20;99.90;;;;;;5051262;28;20047;-78
2023/01/01 04:53:30;;;;;;;5.30;3.97;;;11.20;99.90;;;;;;5047013;28;20032;-78
2023/01/01 04:56:01;;;;;;;8.75;4.30;;;11.30;99.90;;;;;;5048234;28;20021;-78
2023/01/01 04:58:27;;;;;;;6.60;4.00;;;11.00;99.90;;;;;;5051668;28;20017;-78
2023/01/01 05:00:53;;;;;;;7.63;4.30;;;10.90;99.90;;;;;;5046914;28;20036;-78
2023/01/01 05:03:18;;;;;;;5.40;4.00;;;11.00;99.90;;;;;;5043196;28;20025;-78
2023/01/01 05:05:44;;;;;;;6.97;3.90;;;11.10;99.90;;;;;;5033175;28;20026;-78
2023/01/01 05:08:10;;;;;;;7.25;4.18;;;10.90;99.90;;;;;;5038316;28;20035;-78
2023/01/01 05:10:35;;;;;;;7.68;4.38;;;10.90;99.90;;;;;;5049268;28;20051;-78
2023/01/01 05:13:05;;;;;;;5.38;4.00;;;10.80;99.90;;;;;;5051004;28;20029;-78
2023/01/01 05:15:31;;;;;;;8.25;4.10;;;10.70;99.90;;;;;;5051498;28;20021;-78
2023/01/01 05:17:57;;;;;;;9.63;4.30;;;10.60;99.90;;;;;;5051522;28;20089;-78
2023/01/01 05:20:22;;;;;;;7.45;4.40;;;10.90;99.90;;;;;;5051435;28;20021;-78
2023/01/01 05:22:48;;;;;;;6.55;4.10;;;10.90;99.90;;;;;;5039458;28;20112;-78
2023/01/01 05:25:14;;;;;;;7.95;4.47;;;10.90;99.90;;;;;;5050157;28;20025;-78
2023/01/01 05:27:39;;;;;;;6.43;4.00;;;10.90;99.90;;;;;;5046681;28;20487;-78
2023/01/01 05:30:06;;;;;;;6.68;4.38;;;10.80;99.90;;;;;;5049856;28;20052;-78
2023/01/01 05:32:31;;;;;;;7.15;4.32;;;10.90;99.90;;;;;;5046464;28;20057;-78
2023/01/01 05:34:57;;;;;;;7.95;3.80;;;11.00;99.90;;;;;;5048546;28;20044;-78
2023/01/01 05:37:23;;;;;;;7.47;4.05;;;11.00;99.90;;;;;;5048648;28;20026;-78
2023/01/01 05:39:48;;;;;;;4.78;4.15;;;11.00;99.90;;;;;;5051216;28;20488;-78
2023/01/01 05:42:14;;;;;;;5.57;3.85;;;11.10;99.90;;;;;;5051134;28;20474;-78
2023/01/01 05:44:40;;;;;;;8.77;4.43;;;10.90;99.90;;;;;;5050686;28;20025;-78
2023/01/01 05:47:05;;;;;;;6.03;3.67;;;10.80;99.90;;;;;;5050956;28;20029;-78
2023/01/01 05:49:31;;;;;;;4.90;3.70;;;10.70;99.90;;;;;;5051153;28;20029;-78
2023/01/01 05:51:57;;;;;;;7.55;3.80;;;10.70;99.90;;;;;;5050467;28;20031;-78
2023/01/01 05:54:22;;;;;;;7.18;3.88;;;10.70;99.90;;;;;;5050972;28;20498;-78
2023/01/01 05:56:48;;;;;;;7.28;4.20;;;10.80;99.90;;;;;;5051091;28;20088;-78
2023/01/01 05:59:14;;;;;;;6.53;3.80;;;10.80;99.90;;;;;;5050699;28;20421;-78
2023/01/01 06:01:39;;;;;;;8.02;4.25;;;10.80;99.90;;;;;;5050508;28;20371;-78
2023/01/01 06:04:05;;;;;;;8.15;4.25;;;10.80;99.90;;;;;;5045027;28;20044;-78
2023/01/01 06:06:32;;;;;;;5.05;4.18;;;10.70;99.90;;;;;;5030219;28;20098;-78
2023/01/01 06:09:00;;;;;;;6.60;3.78;;;10.70;99.90;;;;;;5030328;28;20557;-78
2023/01/01 06:11:26;;;;;;;6.22;3.90;;;10.60;99.90;;;;;;5029968;28;20061;-78
2023/01/01 06:13:54;;;;;;;3.72;3.30;;;10.50;99.90;;;;;;5045133;28;20121;-78
2023/01/01 06:16:20;;;;;;;7.40;4.25;;;10.50;99.90;;;;;;5050060;28;20014;-78
2023/01/01 06:18:46;;;;;;;5.03;3.50;;;10.70;99.90;;;;;;5050500;28;20036;-78
2023/01/01 06:21:19;;;;;;;8.20;4.22;;;10.70;99.90;;;;;;5050428;28;20024;-78
2023/01/01 06:23:45;;;;;;;4.45;3.58;;;11.00;99.90;;;;;;5050262;28;20108;-78
2023/01/01 06:26:14;;;;;;;5.68;3.55;;;11.00;99.90;;;;;;5050621;28;20104;-78
2023/01/01 06:28:40;;;;;;;8.50;4.30;;;11.10;99.90;;;;;;5050000;28;20060;-78
2023/01/01 06:31:08;;;;;;;6.90;3.65;;;11.10;99.90;;;;;;5050640;28;20068;-78
2023/01/01 06:33:34;;;;;;;7.32;3.90;;;11.00;99.90;;;;;;5045560;28;20049;-78
2023/01/01 06:36:02;;;;;;;8.13;4.57;;;11.20;99.90;;;;;;5043485;28;20032;-78
2023/01/01 06:38:30;;;;;;;8.23;4.55;;;11.10;99.90;;;;;;5045684;28;20095;-78
2023/01/01 06:40:57;;;;;;;6.88;3.90;;;11.30;99.90;;;;;;5060776;28;20467;-78
2023/01/01 06:43:23;;;;;;;8.52;4.32;;;11.20;99.90;;;;;;5050106;28;20028;-78
2023/01/01 06:45:59;;;;;;;8.52;4.47;;;11.20;99.90;;;;;;5049383;28;20387;-78
2023/01/01 06:48:24;;;;;;;7.97;4.18;;;11.10;99.90;;;;;;5050203;28;20031;-78
2023/01/01 06:50:50;;;;;;;7.53;3.70;;;11.20;99.90;;;;;;5050198;28;20104;-78
2023/01/01 06:53:15;;;;;;;10.30;4.22;;;11.10;99.90;;;;;;5045202;28;20026;-78
2023/01/01 06:55:48;;;;;;;8.23;4.85;;;11.20;99.90;;;;;;5047006;28;20025;-78
2023/01/01 06:58:13;;;;;;;9.93;4.75;;;11.10;99.90;;;;;;5050240;28;20013;-78
2023/01/01 07:00:39;;;;;;;8.60;3.90;;;11.00;99.90;;;;;;5045066;28;20029;-78
2023/01/01 07:03:05;;;;;;;8.82;4.03;;;11.00;99.90;;;;;;5040258;28;20029;-78
2023/01/01 07:05:30;;;;;;;7.50;3.78;;;11.00;99.90;;;;;;5044445;28;20455;-78
2023/01/01 07:07:56;;;;;;;8.20;3.47;;;11.00;99.90;;;;;;5045219;28;20034;-78
2023/01/01 07:10:22;;;;;;;8.57;4.75;;;11.00;99.90;;;;;;5045275;28;20115;-78
2023/01/01 07:12:47;;;;;;;10.27;3.80;;;11.10;99.90;;;;;;5050124;28;20021;-78
2023/01/01 07:15:13;;;;;;;11.07;4.40;;;11.30;99.90;;;;;;5052795;28;20413;-78
2023/01/01 07:17:39;;;;;;;10.52;5.38;;;11.30;99.90;;;;;;5053942;28;20486;-78
2023/01/01 07:20:05;;;;;;;15.27;5.03;;;11.30;99.90;;;;;;5053544;28;20449;-78
2023/01/01 07:22:31;;;;;;;9.95;5.38;;;11.30;99.90;;;;;;5048633;28;20075;-78
2023/01/01 07:24:56;;;;;;;8.30;4.55;;;11.40;99.90;;;;;;5049927;28;20033;-78
2023/01/01 07:27:22;;;;;;;13.10;4.65;;;11.30;99.90;;;;;;5053605;28;20037;-78
2023/01/01 07:29:47;;;;;;;10.27;4.65;;;11.30;99.90;;;;;;5052998;28;20053;-78
2023/01/01 07:32:13;;;;;;;10.40;4.97;;;11.40;99.90;;;;;;5048723;28;20490;-78
2023/01/01 07:34:39;;;;;;;11.07;5.10;;;11.30;99.90;;;;;;5049818;28;20431;-78
2023/01/01 07:37:04;;;;;;;15.57;5.72;;;11.40;99.90;;;;;;5053579;28;20027;-78
2023/01/01 07:39:30;;;;;;;12.30;5.30;;;11.50;99.90;;;;;;5053336;28;20104;-79
2023/01/01 07:41:56;;;;;;;14.10;5.68;;;11.60;99.90;;;;;;5053421;28;20033;-79
2023/01/01 07:44:21;;;;;;;15.15;5.82;;;11.50;99.90;;;;;;5050955;28;20703;-79
2023/01/01 07:46:47;;;;;;;11.05;5.15;;;11.50;99.90;;;;;;5053040;28;20087;-78
2023/01/01 07:49:13;;;;;;;9.65;5.43;;;11.50;99.90;;;;;;5053584;28;20039;-79
2023/01/01 07:51:38;;;;;;;10.00;5.43;;;11.60;99.90;;;;;;5053306;28;20082;-78
2023/01/01 07:54:04;;;;;;;10.20;5.05;;;11.50;99.90;;;;;;5053051;28;20079;-79
2023/01/01 07:56:30;;;;;;;8.32;4.70;;;11.70;99.90;;;;;;5053544;28;20397;-79
2023/01/01 07:58:55;;;;;;;9.52;5.25;;;11.60;99.90;;;;;;5052789;28;20434;-78
2023/01/01 08:01:21;;;;;;;10.65;5.40;;;11.80;99.90;;;;;;5052840;28;20070;-79
2023/01/01 08:03:51;;;;;;;9.32;5.28;;;11.90;99.90;;;;;;5050403;28;20068;-79
2023/01/01 08:06:18;;;;;;;12.85;5.13;;;12.00;99.90;;;;;;5033190;28;20048;-78
2023/01/01 08:08:43;;;;;;;15.00;6.47;;;12.00;99.90;;;;;;5047514;28;20044;-78
2023/01/01 08:11:09;;;;;;;9.98;5.57;;;12.00;99.90;;;;;;5052871;28;20425;-78
2023/01/01 08:13:35;;;;;;;12.98;5.68;;;12.00;99.90;;;;;;5052522;28;20406;-79
2023/01/01 08:16:01;;;;;;;8.00;5.03;;;12.10;99.90;;;;;;5052385;28;20040;-79
2023/01/01 08:18:26;;;;;;;7.30;5.15;;;12.00;99.90;;;;;;5052528;28;20130;-79
2023/01/01 08:20:53;;;;;;;12.00;5.78;;;11.90;99.90;;;;;;5052328;28;20574;-79
2023/01/01 08:23:18;;;;;;;12.98;5.85;;;12.10;99.90;;;;;;5052445;28;20039;-78
2023/01/01 08:25:44;;;;;;;10.98;5.30;;;12.10;99.90;;;;;;5051796;28;20108;-79
2023/01/01 08:28:09;;;;;;;14.25;5.53;;;12.10;99.90;;;;;;5050093;28;20107;-79
2023/01/01 08:30:35;;;;;;;13.52;6.22;;;12.20;99.90;;;;;;5052528;28;20470;-78
2023/01/01 08:33:01;;;;;;;14.55;5.82;;;12.10;99.90;;;;;;5052400;28;20583;-78
2023/01/01 08:35:26;;;;;;;12.90;5.97;;;12.10;99.90;;;;;;5052061;28;20540;-79
2023/01/01 08:37:52;;;;;;;14.60;5.63;;;12.00;99.90;;;;;;5052367;28;20021;-78
2023/01/01 08:40:18;;;;;;;10.73;5.32;;;12.10;99.90;;;;;;5052427;28;20051;-79
2023/01/01 08:42:44;;;;;;;11.27;5.68;;;12.10;99.90;;;;;;5051886;28;20071;-79
2023/01/01 08:45:09;;;;;;;11.80;5.20;;;12.20;99.90;;;;;;5052031;28;20483;-79
2023/01/01 08:47:35;;;;;;;12.15;5.80;;;12.20;99.90;;;;;;5050386;28;20502;-79
2023/01/01 08:50:01;;;;;;;14.10;6.05;;;12.30;99.90;;;;;;5048290;28;20029;-79
2023/01/01 08:52:27;;;;;;;11.10;5.72;;;12.40;99.90;;;;;;5060315;28;20033;-79
2023/01/01 08:54:52;;;;;;;10.70;5.22;;;12.40;99.90;;;;;;5040652;28;20025;-78
2023/01/01 08:57:18;;;;;;;14.10;5.60;;;12.50;99.90;;;;;;5037719;28;20067;-78
2023/01/01 08:59:43;;;;;;;8.43;4.85;;;12.50;99.90;;;;;;5047593;28;20260;-79
2023/01/01 09:02:10;;;;;;;10.25;5.40;;;12.50;99.90;;;;;;5046465;28;20498;-78
2023/01/01 09:04:36;;;;;;;14.10;5.07;;;12.70;99.90;;;;;;5045821;28;20123;-79
2023/01/01 09:07:02;;;;;;;9.93;5.13;;;12.80;99.90;;;;;;5051678;28;20085;-79
2023/01/01 09:09:28;;;;;;;11.00;5.68;;;13.00;99.90;;;;;;5051382;28;20474;-78
2023/01/01 09:11:57;;;;;;;9.15;5.07;;;13.70;99.90;;;;;;5048541;28;20566;-78
2023/01/01 09:14:24;;;;;;;6.88;4.40;;;13.70;99.90;;;;;;5051212;28;20013;-79
2023/01/01 09:16:49;;;;;;;8.32;4.47;;;13.60;99.90;;;;;;5047070;28;20103;-79
2023/01/01 09:19:15;;;;;;;10.85;5.15;;;13.70;99.90;;;;;;5065960;28;20108;-79
2023/01/01 09:21:41;;;;;;;6.50;4.18;;;13.60;99.90;;;;;;5045951;28;20449;-79
2023/01/01 09:24:07;;;;;;;12.27;4.82;;;13.50;99.90;;;;;;5049232;28;20013;-79
2023/01/01 09:26:32;;;;;;;11.32;4.97;;;13.50;99.90;;;;;;5046133;28;20403;-79
2023/01/01 09:28:58;;;;;;;6.90;4.45;;;13.50;99.90;;;;;;5049434;28;20506;-78
2023/01/01 09:31:24;;;;;;;7.43;4.95;;;13.40;99.90;;;;;;5046150;28;20109;-79
2023/01/01 09:33:50;;;;;;;11.00;4.82;;;13.40;99.90;;;;;;5041449;28;20484;-78
2023/01/01 09:36:26;;;;;;;12.75;5.30;;;13.50;99.90;;;;;;5045830;28;20037;-78
2023/01/01 09:38:53;;;;;;;9.93;5.22;;;13.60;99.90;;;;;;5049043;28;20037;-79
2023/01/01 09:41:27;;;;;;;12.85;4.95;;;13.50;99.90;;;;;;5050253;28;20021;-79
2023/01/01 09:44:08;;;;;;;10.88;5.40;;;13.70;99.90;;;;;;5049552;28;20017;-79
2023/01/01 09:46:35;;;;;;;9.30;4.85;;;13.80;99.90;;;;;;5038969;28;20111;-78
2023/01/01 09:49:17;;;;;;;12.70;5.45;;;13.90;99.90;;;;;;5049722;28;20025;-78
2023/01/01 09:51:47;;;;;;;9.65;5.05;;;14.20;99.90;;;;;;5049123;28;20057;-78
2023/01/01 09:54:27;;;;;;;11.63;5.45;;;14.30;99.90;;;;;;5043748;28;20014;-79
2023/01/01 09:56:56;;;;;;;13.85;5.45;;;14.50;99.90;;;;;;5050934;28;20100;-79
2023/01/01 09:59:22;;;;;;;7.93;5.03;;;14.70;99.90;;;;;;5048865;28;20021;-78
2023/01/01 10:02:00;;;;;;;9.43;5.70;;;14.70;99.90;;;;;;5046401;28;20079;-79
2023/01/01 10:04:47;;;;;;;11.10;5.60;;;14.80;99.90;;;;;;5049846;28;20028;-78
2023/01/01 10:07:57;;;;;;;8.45;5.35;;;14.90;99.90;;;;;;5050595;28;20036;-78
2023/01/01 10:10:48;;;;;;;10.50;5.68;;;15.00;99.90;;;;;;5050544;28;20116;-79
2023/01/01 10:13:30;;;;;;;8.70;5.20;;;15.10;99.90;;;;;;5050001;28;20558;-79
2023/01/01 10:16:14;;;;;;;9.30;5.25;;;15.10;99.90;;;;;;5045951;28;20104;-79
2023/01/01 10:18:41;;;;;;;15.00;5.70;;;15.20;99.90;;;;;;5049118;28;20078;-79
2023/01/01 10:21:32;;;;;;;14.60;5.55;;;15.20;99.90;;;;;;5050687;28;20505;-79
2023/01/01 10:24:11;;;;;;;13.35;5.95;;;15.20;99.90;;;;;;5050176;28;20025;-79
2023/01/01 10:26:38;;;;;;;10.18;5.15;;;15.20;99.90;;;;;;5049983;28;20021;-79
2023/01/01 10:29:13;;;;;;;7.07;5.15;;;15.20;99.90;;;;;;5050343;28;20049;-79
2023/01/01 10:31:44;;;;;;;8.65;4.28;;;15.20;99.90;;;;;;5050348;28;20021;-78
2023/01/01 10:34:26;;;;;;;10.23;5.23;;;15.30;99.90;;;;;;5041050;28;20539;-79
2023/01/01 10:36:55;;;;;;;15.10;5.32;;;15.60;99.90;;;;;;5037557;28;20263;-79
2023/01/01 10:39:21;;;;;;;9.80;5.20;;;15.50;99.90;;;;;;5049205;28;20029;-79
2023/01/01 10:41:47;;;;;;;9.43;4.75;;;15.60;99.90;;;;;;5049735;28;20045;-79
2023/01/01 10:44:17;;;;;;;10.45;5.15;;;15.70;99.90;;;;;;5047834;28;20021;-79
2023/01/01 10:46:51;;;;;;;11.02;5.05;;;15.80;99.90;;;;;;5047305;28;20047;-79
2023/01/01 10:49:16;;;;;;;5.63;4.93;;;15.80;99.90;;;;;;5050710;28;20096;-78
2023/01/01 10:51:50;;;;;;;9.40;4.88;;;15.90;99.90;;;;;;5052432;28;20589;-79
2023/01/01 10:54:33;;;;;;;8.05;4.35;;;15.90;99.90;;;;;;5059300;28;20538;-79
2023/01/01 10:57:16;;;;;;;12.75;5.53;;;15.90;99.90;;;;;;5048834;28;20075;-79
2023/01/01 10:59:43;;;;;;;12.45;5.13;;;15.70;99.90;;;;;;5051590;28;20032;-79
2023/01/01 11:02:26;;;;;;;10.65;5.15;;;15.70;99.90;;;;;;5050984;28;20092;-78
2023/01/01 11:05:17;;;;;;;9.20;4.88;;;15.60;99.90;;;;;;5046850;28;20452;-79
2023/01/01 11:07:44;;;;;;;12.00;4.60;;;15.50;99.90;;;;;;5051040;28;20532;-79
2023/01/01 11:10:19;;;;;;;10.45;5.05;;;15.40;99.90;;;;;;5048008;28;20434;-78
2023/01/01 11:12:45;;;;;;;11.45;5.47;;;15.30;99.90;;;;;;5049804;28;20111;-79
2023/01/01 11:15:41;;;;;;;16.48;5.78;;;15.30;99.90;;;;;;5051537;28;20061;-79
2023/01/01 11:18:12;;;;;;;10.30;5.00;;;15.20;99.90;;;;;;5053952;28;20037;-78
2023/01/01 11:20:39;;;;;;;7.95;4.90;;;15.10;99.90;;;;;;5039444;28;20025;-78
2023/01/01 11:23:37;;;;;;;8.98;4.47;;;15.00;99.90;;;;;;5048906;28;20039;-79
2023/01/01 11:26:11;;;;;;;10.30;4.82;;;15.00;99.90;;;;;;5052266;28;20029;-79
2023/01/01 11:28:37;;;;;;;12.43;5.22;;;15.00;99.90;;;;;;5050484;28;20531;-79
2023/01/01 11:31:09;;;;;;;8.98;4.47;;;15.10;99.90;;;;;;5049074;28;20036;-79
2023/01/01 11:33:53;;;;;;;16.02;5.93;;;15.00;99.90;;;;;;5049264;28;20519;-79
2023/01/01 11:36:32;;;;;;;9.90;5.18;;;15.10;99.90;;;;;;5046846;28;20695;-79
2023/01/01 11:39:13;;;;;;;9.55;5.57;;;15.10;99.90;;;;;;5048111;28;20029;-78
2023/01/01 11:41:41;;;;;;;10.88;5.28;;;15.00;99.90;;;;;;5051954;28;20021;-79
2023/01/01 11:44:10;;;;;;;8.88;5.05;;;15.00;99.90;;;;;;5035508;28;20047;-79
2023/01/01 11:46:38;;;;;;;11.23;5.47;;;15.00;99.90;;;;;;5047056;28;20014;-79
2023/01/01 11:49:13;;;;;;;11.93;4.97;;;15.00;99.90;;;;;;5049547;28;20133;-78
2023/01/01 11:51:39;;;;;;;11.65;5.38;;;15.00;99.90;;;;;;5042442;28;20025;-78
2023/01/01 11:54:31;;;;;;;11.00;5.72;;;15.00;99.90;;;;;;5048507;28;20056;-78
2023/01/01 11:57:20;;;;;;;11.85;5.60;;;14.90;99.90;;;;;;5051181;28;20017;-79
2023/01/01 11:59:51;;;;;;;9.75;4.43;;;14.90;99.90;;;;;;5035700;28;20025;-78
2023/01/01 12:02:40;;;;;;;10.63;5.13;;;14.90;99.90;;;;;;5048188;28;20028;-79
2023/01/01 12:05:42;;;;;;;16.67;5.57;;;14.90;99.90;;;;;;5042401;28;20020;-79
2023/01/01 12:08:09;;;;;;;;;;;14.90;99.90;;;;;;5042838;28;20104;-78
2023/01/01 12:11:05;;;;;;;13.93;5.90;;;14.90;99.90;;;;;;5050727;28;19954;-79
2023/01/01 12:13:41;;;;;;;10.98;5.70;;;14.90;99.90;;;;;;5045480;28;20045;-77
2023/01/01 12:16:12;;;;;;;19.08;6.13;;;14.90;99.90;;;;;;5030713;28;20061;-78
2023/01/01 12:19:03;;;;;;;10.55;5.30;;;14.90;99.90;;;;;;5044214;28;20094;-77
2023/01/01 12:21:31;;;;;;;14.25;5.70;;;14.90;99.90;;;;;;5051029;28;20040;-77
2023/01/01 12:23:57;;;;;;;17.35;6.38;;;14.90;99.90;;;;;;5041544;28;20053;-78
2023/01/01 12:26:25;;;;;;;14.25;5.18;;;14.90;99.90;;;;;;5047688;28;20525;-77
2023/01/01 12:29:12;;;;;;;11.80;5.80;;;14.90;99.90;;;;;;5033429;28;20080;-77
2023/01/01 12:32:00;;;;;;;13.45;6.15;;;14.90;99.90;;;;;;5046779;28;20161;-78
2023/01/01 12:34:35;;;;;;;7.38;5.20;;;14.90;99.90;;;;;;5048206;28;20033;-77
2023/01/01 12:37:24;;;;;;;10.95;5.72;;;14.90;99.90;;;;;;5049333;28;20542;-77
2023/01/01 12:40:29;;;;;;;12.45;5.65;;;14.90;99.90;;;;;;5041487;28;20078;-77
2023/01/01 12:43:07;;;;;;;10.77;5.32;;;14.80;99.90;;;;;;5063924;28;20060;-77
2023/01/01 12:46:07;;;;;;;11.35;5.93;;;14.80;99.90;;;;;;5049345;28;20055;-77
2023/01/01 12:49:30;;;;;;;11.63;6.20;;;14.80;99.90;;;;;;5049246;28;20458;-77
2023/01/01 12:52:21;;;;;;;15.50;6.18;;;14.80;99.90;;;;;;5047491;28;20509;-77
2023/01/01 12:55:06;;;;;;;8.13;5.07;;;14.80;99.90;;;;;;5047721;28;20563;-77
2023/01/01 12:57:37;;;;;;;12.25;5.30;;;14.80;99.90;;;;;;5047682;28;20040;-77
2023/01/01 13:00:15;;;;;;;9.13;5.85;;;14.80;99.90;;;;;;5047236;28;20188;-77
2023/01/01 13:02:52;;;;;;;11.57;5.80;;;14.80;99.90;;;;;;5030820;28;20040;-77
2023/01/01 13:05:57;;;;;;;8.35;5.15;;;14.70;99.90;;;;;;5047449;28;20113;-77
2023/01/01 13:08:23;;;;;;;8.43;4.80;;;14.80;99.90;;;;;;5047190;28;20045;-77
2023/01/01 13:10:53;;;;;;;8.80;5.25;;;14.70;99.90;;;;;;5046804;28;20037;-77
2023/01/01 13:13:19;;;;;;;6.93;4.28;;;14.70;99.90;;;;;;5046163;28;20029;-77